D/T METAR WX W/DIR W/SPE G/SPE TEMP DEWP
5/06/20 06:50 EGPE 050550Z 29009KT 260V320 9999 FEW018 SCT042 08/03 Q0996 WNW (290°) 10.4mph 8°C 3°C
5/06/20 06:20 EGPE 050520Z 28007KT 9999 FEW018 07/03 Q0997 W (280°) 8.1mph 7°C 3°C
5/06/20 05:50 EGPE 050450Z AUTO 28006KT 9999 NCD 07/03 Q0997 W (280°) 6.9mph 7°C 3°C
5/06/20 05:20 EGPE 050420Z AUTO 28006KT 9999 SCT019/// BKN029/// BKN034/// 06/04 Q0997 W (280°) 6.9mph 6°C 4°C
5/06/20 04:50 EGPE 050350Z AUTO 30008KT 280V350 9999 -RA BKN018/// OVC026/// 07/04 Q0997 -RA WNW (300°) 9.2mph 7°C 4°C
5/06/20 04:20 EGPE 050320Z 27006KT 250V310 9999 BKN025 07/03 Q0997 W (270°) 6.9mph 7°C 3°C
5/06/20 03:50 EGPE 050250Z 27004KT 9999 BKN025 07/03 Q0998 W (270°) 4.6mph 7°C 3°C
5/06/20 03:20 EGPE 050220Z 24004KT 220V300 9999 FEW020 SCT037 BKN044 06/03 Q0998 WSW (240°) 4.6mph 6°C 3°C
5/06/20 02:50 EGPE 050150Z 26005KT 220V300 9999 FEW012 BKN044 07/03 Q0998 W (260°) 5.8mph 7°C 3°C
5/06/20 02:20 EGPE 050120Z AUTO 28005KT 250V310 9999 BKN043/// 07/03 Q0998 W (280°) 5.8mph 7°C 3°C
5/06/20 01:50 EGPE 050050Z AUTO 29006KT 9999 FEW042/// 06/03 Q0999 WNW (290°) 6.9mph 6°C 3°C
5/06/20 01:20 EGPE 050020Z AUTO 27004KT 9999 BKN040/// 07/03 Q0999 W (270°) 4.6mph 7°C 3°C
5/06/20 00:50 EGPE 042350Z AUTO 29006KT 9999 NCD 07/03 Q0999 WNW (290°) 6.9mph 7°C 3°C
4/06/20 23:50 EGPE 042250Z AUTO 30006KT 9999 FEW030/// BKN036/// BKN045/// 07/04 Q1000 WNW (300°) 6.9mph 7°C 4°C
4/06/20 23:20 EGPE 042220Z AUTO 32010KT 9999 FEW039/// BKN045/// 08/04 Q1000 NW (320°) 11.5mph 8°C 4°C
4/06/20 22:50 EGPE 042150Z AUTO 32008KT 9999 BKN032/// OVC047/// 08/04 Q1000 NW (320°) 9.2mph 8°C 4°C
4/06/20 22:20 EGPE 042120Z AUTO 33011KT 9999 BKN034/// 08/04 Q1001 NNW (330°) 12.7mph 8°C 4°C
4/06/20 21:50 EGPE 042050Z AUTO 32008KT 9999 SCT031/// BKN038/// OVC049/// 08/04 Q1001 NW (320°) 9.2mph 8°C 4°C
4/06/20 21:20 EGPE 042020Z AUTO 32008KT 9999 BKN041/// BKN049/// 09/04 Q1001 NW (320°) 9.2mph 9°C 4°C
4/06/20 20:50 EGPE 041950Z 33008KT 9999 FEW020 SCT035 09/04 Q1001 NNW (330°) 9.2mph 9°C 4°C
4/06/20 20:20 EGPE 041920Z 34004KT 310V020 9999 FEW020 SCT033 09/05 Q1001 NNW (340°) 4.6mph 9°C 5°C
4/06/20 19:50 EGPE 041850Z 00000KT 9999 FEW020 SCT025 09/06 Q1001 N (0°) 9°C 6°C
4/06/20 19:20 EGPE 041820Z VRB01KT 9999 VCSH FEW020 SCT030 10/05 Q1001 VCSH N (0°) 1.2mph 10°C 5°C
4/06/20 18:50 EGPE 041750Z VRB01KT 9999 FEW020 SCT027 10/05 Q1001 N (0°) 1.2mph 10°C 5°C
4/06/20 18:20 EGPE 041720Z 00000KT 9999 FEW005 SCT027 10/05 Q1001 N (0°) 10°C 5°C
4/06/20 17:50 EGPE 041650Z VRB02KT 9999 SCT028 BKN040 10/05 Q1001 N (0°) 2.3mph 10°C 5°C
4/06/20 17:20 EGPE 041620Z VRB03KT 9999 SCT028 BKN040 10/05 Q1002 N (0°) 3.5mph 10°C 5°C
4/06/20 16:50 EGPE 041550Z 05005KT 010V070 9999 SCT028 BKN040 10/04 Q1002 NE (50°) 5.8mph 10°C 4°C
4/06/20 16:20 EGPE 041520Z 02007KT 9999 BKN038 10/05 Q1002 NNE (20°) 8.1mph 10°C 5°C
4/06/20 15:50 EGPE 041450Z AUTO 04006KT 9999 BKN041/// 10/04 Q1002 NE (40°) 6.9mph 10°C 4°C
4/06/20 14:50 EGPE 041350Z AUTO 05007KT 9999 BKN024/// OVC030/// 09/05 Q1002 NE (50°) 8.1mph 9°C 5°C
4/06/20 14:20 EGPE 041320Z AUTO 05010KT 9999 SCT013/// OVC017/// 09/06 Q1003 NE (50°) 11.5mph 9°C 6°C
4/06/20 13:50 EGPE 041250Z AUTO 05013KT 9999 BKN012/// OVC046/// 09/06 Q1003 NE (50°) 15.0mph 9°C 6°C
4/06/20 13:20 EGPE 041220Z AUTO 05014KT 9999 BKN015/// BKN034/// OVC045/// 10/06 Q1003 NE (50°) 16.1mph 10°C 6°C
4/06/20 12:50 EGPE 041150Z AUTO 03014KT 9999 FEW011/// SCT016/// BKN034/// 10/08 Q1003 NNE (30°) 16.1mph 10°C 8°C
4/06/20 12:20 EGPE 041120Z AUTO 02013KT 9999 SCT011/// BKN015/// BKN021/// 10/08 Q1002 NNE (20°) 15.0mph 10°C 8°C
4/06/20 11:50 EGPE 041050Z 04005KT 360V070 9999 VCSH SCT009 BKN020 BKN040 10/08 Q1002 VCSH NE (40°) 5.8mph 10°C 8°C
4/06/20 11:20 EGPE 041020Z 36003KT 9999 VCSH FEW009 BKN018 10/08 Q1002 VCSH N (360°) 3.5mph 10°C 8°C
4/06/20 10:50 EGPE 040950Z 29003KT 9999 VCSH FEW009 SCT016 BKN030 10/07 Q1003 VCSH WNW (290°) 3.5mph 10°C 7°C
4/06/20 10:20 EGPE 040920Z VRB03KT 9999 VCSH FEW009 SCT014 BKN030 10/08 Q1003 VCSH N (0°) 3.5mph 10°C 8°C
4/06/20 09:50 EGPE 040850Z 24007KT 9999 VCSH FEW009 BKN035 10/07 Q1003 VCSH WSW (240°) 8.1mph 10°C 7°C
4/06/20 09:20 EGPE 040820Z 23008KT 9999 FEW009 BKN035 10/07 Q1003 SW (230°) 9.2mph 10°C 7°C
4/06/20 08:50 EGPE 040750Z 23007KT 9999 FEW009 BKN034 10/08 Q1003 SW (230°) 8.1mph 10°C 8°C
4/06/20 08:20 EGPE 040720Z 23008KT 9999 FEW007 BKN040 09/08 Q1004 SW (230°) 9.2mph 9°C 8°C
4/06/20 07:20 EGPE 040620Z 23008KT 9000 -RA FEW008 SCT012 BKN027 08/07 Q1005 -RA SW (230°) 9.2mph 8°C 7°C
4/06/20 06:50 EGPE 040550Z 23007KT 9999 FEW004 SCT032 BKN044 08/06 Q1005 SW (230°) 8.1mph 8°C 6°C
4/06/20 06:20 EGPE 040520Z 22006KT 9999 FEW004 BKN035 08/06 Q1005 SW (220°) 6.9mph 8°C 6°C
4/06/20 05:50 EGPE 040450Z AUTO 23006KT 9999 BKN033/// 08/05 Q1006 SW (230°) 6.9mph 8°C 5°C
4/06/20 05:20 EGPE 040420Z AUTO 21003KT 9999 OVC034/// 08/05 Q1006 SSW (210°) 3.5mph 8°C 5°C
4/06/20 04:50 EGPE 040350Z AUTO 20002KT 9999 OVC032/// 07/05 Q1007 SSW (200°) 2.3mph 7°C 5°C
4/06/20 04:20 EGPE 040320Z AUTO VRB01KT 9999 SCT032/// BKN047/// 08/04 Q1007 N (0°) 1.2mph 8°C 4°C
4/06/20 03:50 EGPE 040250Z AUTO VRB03KT 9999 FEW036/// SCT043/// 08/05 Q1008 N (0°) 3.5mph 8°C 5°C
4/06/20 03:20 EGPE 040220Z AUTO 20003KT 9999 BKN044/// 07/05 Q1008 SSW (200°) 3.5mph 7°C 5°C
4/06/20 02:50 EGPE 040150Z 22004KT 9999 BKN046 08/05 Q1009 SW (220°) 4.6mph 8°C 5°C
4/06/20 02:20 EGPE 040120Z 24004KT 200V270 9999 BKN046 08/04 Q1009 WSW (240°) 4.6mph 8°C 4°C
4/06/20 01:50 EGPE 040050Z AUTO 27004KT 9999 NCD 09/04 Q1010 W (270°) 4.6mph 9°C 4°C
4/06/20 01:20 EGPE 040020Z AUTO 26004KT 9999 NCD 08/05 Q1010 W (260°) 4.6mph 8°C 5°C
4/06/20 00:50 EGPE 032350Z AUTO 20002KT 9999 NCD 07/04 Q1011 SSW (200°) 2.3mph 7°C 4°C
4/06/20 00:20 EGPE 032320Z AUTO 00000KT 9999 NCD 07/04 Q1011 N (0°) 7°C 4°C
3/06/20 23:50 EGPE 032250Z AUTO 20001KT 9999 FEW026/// 06/03 Q1012 SSW (200°) 1.2mph 6°C 3°C
3/06/20 23:20 EGPE 032220Z AUTO 30003KT 9999 NCD 08/04 Q1012 WNW (300°) 3.5mph 8°C 4°C
3/06/20 22:50 EGPE 032150Z AUTO 31006KT 9999 SCT049/// 09/03 Q1013 NW (310°) 6.9mph 9°C 3°C
3/06/20 22:20 EGPE 032120Z AUTO 31005KT 9999 BKN046/// 09/04 Q1013 NW (310°) 5.8mph 9°C 4°C
3/06/20 21:50 EGPE 032050Z AUTO 34005KT 9999 OVC043/// 10/04 Q1013 NNW (340°) 5.8mph 10°C 4°C
3/06/20 21:20 EGPE 032020Z AUTO 34007KT 9999 OVC042/// 10/04 Q1014 NNW (340°) 8.1mph 10°C 4°C
3/06/20 20:50 EGPE 031950Z VRB03KT 9999 FEW035 SCT048 10/05 Q1014 N (0°) 3.5mph 10°C 5°C
3/06/20 20:20 EGPE 031920Z 03006KT 9999 FEW035 SCT048 10/05 Q1014 NNE (30°) 6.9mph 10°C 5°C
3/06/20 19:50 EGPE 031850Z 02008KT 9999 FEW035 SCT048 11/04 Q1014 NNE (20°) 9.2mph 11°C 4°C
3/06/20 19:20 EGPE 031820Z 01008KT 9999 FEW035 SCT048 11/04 Q1015 N (10°) 9.2mph 11°C 4°C
3/06/20 18:20 EGPE 031720Z 36010KT 9999 FEW035 SCT048 12/04 Q1015 N (360°) 11.5mph 12°C 4°C
3/06/20 17:50 EGPE 031650Z 01013KT 9999 FEW033 SCT046 12/04 Q1015 N (10°) 15.0mph 12°C 4°C
3/06/20 17:20 EGPE 031620Z 35008KT 320V020 9999 FEW033 SCT046 13/04 Q1016 N (350°) 9.2mph 13°C 4°C
3/06/20 16:50 EGPE 031550Z 03005KT 350V080 9999 FEW033 SCT045 13/06 Q1016 NNE (30°) 5.8mph 13°C 6°C
3/06/20 16:20 EGPE 031520Z 01008KT 310V060 9999 FEW034 SCT046 13/05 Q1016 N (10°) 9.2mph 13°C 5°C
3/06/20 15:50 EGPE 031450Z 33007KT 9999 FEW034 SCT046 13/02 Q1016 NNW (330°) 8.1mph 13°C 2°C
3/06/20 15:20 EGPE 031420Z AUTO 36008KT 9999 SCT037/// 13/03 Q1017 N (360°) 9.2mph 13°C 3°C
3/06/20 14:50 EGPE 031350Z AUTO 04008KT 9999 BKN049/// 13/06 Q1017 NE (40°) 9.2mph 13°C 6°C
3/06/20 14:20 EGPE 031320Z AUTO 35007KT 9999 NCD 13/03 Q1017 N (350°) 8.1mph 13°C 3°C
3/06/20 13:50 EGPE 031250Z AUTO 34010KT 9999 BKN045/// 13/04 Q1017 NNW (340°) 11.5mph 13°C 4°C
3/06/20 12:50 EGPE 031150Z AUTO 01010KT 340V040 9999 FEW036/// SCT043/// 13/05 Q1018 N (10°) 11.5mph 13°C 5°C
3/06/20 11:50 EGPE 031050Z 35009KT 9999 FEW038 BKN044 11/03 Q1018 N (350°) 10.4mph 11°C 3°C
3/06/20 11:20 EGPE 031020Z 36011KT 9999 FEW038 BKN049 12/04 Q1018 N (360°) 12.7mph 12°C 4°C
3/06/20 10:50 EGPE 030950Z 34010KT 9999 FEW028 SCT038 12/04 Q1019 NNW (340°) 11.5mph 12°C 4°C
3/06/20 10:20 EGPE 030920Z 35012KT 9999 FEW035 BKN048 12/04 Q1019 N (350°) 13.8mph 12°C 4°C
3/06/20 09:50 EGPE 030850Z 35012KT 9999 FEW025 BKN049 12/04 Q1019 N (350°) 13.8mph 12°C 4°C
3/06/20 09:20 EGPE 030820Z 35012KT 9999 FEW015 SCT032 BKN049 10/04 Q1019 N (350°) 13.8mph 10°C 4°C
3/06/20 08:50 EGPE 030750Z 36009KT 320V030 9999 FEW015 SCT032 BKN048 11/05 Q1019 N (360°) 10.4mph 11°C 5°C
3/06/20 08:20 EGPE 030720Z 35009KT 320V030 9999 FEW015 SCT036 BKN042 10/05 Q1019 N (350°) 10.4mph 10°C 5°C
3/06/20 07:20 EGPE 030620Z 33006KT 9999 FEW014 SCT028 BKN049 09/05 Q1019 NNW (330°) 6.9mph 9°C 5°C
3/06/20 06:50 EGPE 030550Z 35007KT 9999 FEW012 SCT029 BKN045 09/05 Q1020 N (350°) 8.1mph 9°C 5°C
3/06/20 06:20 EGPE 030520Z 35007KT 9999 FEW015 SCT029 BKN044 09/05 Q1020 N (350°) 8.1mph 9°C 5°C
3/06/20 05:50 EGPE 030450Z 34009KT 9999 FEW016 BKN048 09/06 Q1020 NNW (340°) 10.4mph 9°C 6°C
3/06/20 05:20 EGPE 030420Z 35007KT 9999 SCT040 08/06 Q1020 N (350°) 8.1mph 8°C 6°C
3/06/20 04:50 EGPE 030350Z 34008KT 9999 SCT028 09/06 Q1020 NNW (340°) 9.2mph 9°C 6°C
3/06/20 03:50 EGPE 030250Z 01005KT 9999 SCT030 08/07 Q1020 N (10°) 5.8mph 8°C 7°C
3/06/20 03:20 EGPE 030220Z 35008KT 9999 SCT030 08/07 Q1020 N (350°) 9.2mph 8°C 7°C